Time;durP1;ratioP1;P1;durP2;ratioP2;P2;SDS_P1;SDS_P2;PMS_P1;PMS_P2;Temp;Humidity;BMP_temperature;BMP_pressure;BME280_temperature;BME280_humidity;BME280_pressure;Samples;Min_cycle;Max_cycle;Signal;HPM_P1;HPM_P2
2023/06/20 00:01:57;;;;;;;;;19.20;18.00;;;;;23.27;36.82;99272.94;5032201;28;8859;-89
2023/06/20 00:04:26;;;;;;;;;25.80;23.40;;;;;23.22;36.86;99275.94;5050211;28;8898;-86
2023/06/20 00:06:56;;;;;;;;;25.00;23.20;;;;;23.22;36.73;99273.28;5018234;28;8864;-90
2023/06/20 00:09:26;;;;;;;;;19.80;19.80;;;;;23.30;36.68;99276.22;5035601;28;8859;-88
2023/06/20 00:11:58;;;;;;;;;23.60;23.60;;;;;23.20;36.53;99272.53;5036931;28;9053;-87
2023/06/20 00:14:30;;;;;;;;;25.20;24.40;;;;;23.22;36.66;99273.28;5035935;28;8909;-89
2023/06/20 00:17:00;;;;;;;;;22.20;21.60;;;;;23.39;36.64;99270.13;5017294;28;8840;-88
2023/06/20 00:19:31;;;;;;;;;26.00;23.40;;;;;23.45;36.51;99274.16;5017058;28;8903;-89
2023/06/20 00:22:03;;;;;;;;;24.60;24.40;;;;;23.49;36.13;99267.56;5029968;28;8875;-91
2023/06/20 00:24:33;;;;;;;;;23.40;23.40;;;;;23.50;36.48;99268.41;5027549;28;8957;-90
2023/06/20 00:27:05;;;;;;;;;24.20;24.20;;;;;23.40;36.73;99268.31;4961123;28;8871;-91
2023/06/20 00:29:34;;;;;;;;;22.80;20.60;;;;;23.07;37.34;99261.06;4996446;28;8859;-88
2023/06/20 00:32:04;;;;;;;;;26.40;25.40;;;;;23.16;36.78;99261.19;5010297;28;8855;-89
2023/06/20 00:34:34;;;;;;;;;25.20;25.20;;;;;23.25;36.73;99267.69;5012584;28;8866;-90
2023/06/20 00:37:04;;;;;;;;;25.80;24.80;;;;;23.00;36.95;99264.22;5012794;28;8971;-88
2023/06/20 00:39:35;;;;;;;;;25.60;25.20;;;;;23.06;36.99;99256.69;5014494;28;8878;-90
2023/06/20 00:42:05;;;;;;;;;19.20;18.20;;;;;23.06;36.85;99256.69;4997872;28;8834;-90
2023/06/20 00:44:34;;;;;;;;;26.20;25.00;;;;;23.01;36.72;99267.75;4983696;28;8868;-89
2023/06/20 00:47:52;;;;;;;;;23.60;23.20;;;;;23.23;36.47;99258.06;4936743;29;8969;-88
2023/06/20 00:50:27;;;;;;;;;25.40;24.40;;;;;23.08;36.65;99255.59;4931257;29;8934;-88
2023/06/20 00:53:00;;;;;;;;;26.80;24.80;;;;;22.89;37.06;99258.84;4925041;29;8867;-91
2023/06/20 00:55:36;;;;;;;;;23.20;23.20;;;;;23.07;36.55;99255.69;4900545;29;8901;-91
2023/06/20 00:58:17;;;;;;;;;26.40;26.00;;;;;23.05;36.31;99261.19;4921665;29;8901;-90
2023/06/20 01:00:46;;;;;;;;;23.60;23.20;;;;;23.11;36.66;99260.72;4899965;29;8900;-85
2023/06/20 01:03:16;;;;;;;;;18.80;18.80;;;;;22.98;36.70;99262.66;4901729;29;8861;-90
2023/06/20 01:05:57;;;;;;;;;20.20;19.60;;;;;22.92;36.81;99263.97;4871476;29;8881;-89
2023/06/20 01:08:35;;;;;;;;;24.60;24.00;;;;;23.02;36.15;99257.91;4918920;29;8873;-87
2023/06/20 01:11:20;;;;;;;;;21.60;21.60;;;;;22.99;36.35;99261.66;4890262;29;8965;-88
2023/06/20 01:14:02;;;;;;;;;22.20;22.20;;;;;22.91;36.25;99258.72;4906926;28;8861;-89
2023/06/20 01:16:42;;;;;;;;;22.40;20.80;;;;;22.87;36.55;99262.59;4978136;28;8874;-87
2023/06/20 01:19:50;;;;;;;;;23.00;22.60;;;;;22.86;36.10;99263.56;4944469;28;8875;-90
2023/06/20 01:22:41;;;;;;;;;24.40;21.60;;;;;22.86;36.02;99269.75;4976810;28;8882;-88
2023/06/20 01:25:24;;;;;;;;;22.80;22.80;;;;;22.87;35.72;99260.75;4956273;28;8879;-90
2023/06/20 01:28:05;;;;;;;;;26.20;23.40;;;;;22.90;35.89;99262.38;4960636;28;8859;-89
2023/06/20 01:30:42;;;;;;;;;27.20;26.40;;;;;22.92;35.81;99255.94;5000377;28;8875;-89
2023/06/20 01:33:14;;;;;;;;;23.80;23.60;;;;;22.94;35.82;99255.78;5020161;28;8872;-88
2023/06/20 01:36:06;;;;;;;;;22.40;22.40;;;;;22.95;35.55;99257.53;4965851;28;8869;-88
2023/06/20 01:38:39;;;;;;;;;25.00;24.40;;;;;22.66;36.24;99257.06;4956630;28;8877;-87
2023/06/20 01:41:11;;;;;;;;;20.40;20.20;;;;;22.75;36.07;99267.03;4953480;28;8875;-87
2023/06/20 01:43:40;;;;;;;;;23.20;20.80;;;;;22.85;35.70;99261.84;4936268;28;9642;-89
2023/06/20 01:46:11;;;;;;;;;23.20;20.00;;;;;22.88;35.56;99262.44;4931314;29;8905;-89
2023/06/20 01:48:42;;;;;;;;;17.60;16.20;;;;;22.79;36.06;99263.19;4899317;29;8897;-89
2023/06/20 01:51:14;;;;;;;;;20.80;20.20;;;;;22.80;35.77;99259.50;4902317;29;8881;-87
2023/06/20 01:53:45;;;;;;;;;21.80;21.80;;;;;22.72;36.05;99268.16;4934113;28;9071;-88
2023/06/20 01:56:19;;;;;;;;;21.00;20.40;;;;;22.76;35.83;99263.41;4962714;28;8894;-89
2023/06/20 01:58:51;;;;;;;;;22.60;20.80;;;;;22.62;36.26;99256.44;4920371;29;9660;-90
2023/06/20 02:01:23;;;;;;;;;23.40;23.00;;;;;22.60;36.41;99263.72;4936507;29;8884;-89
2023/06/20 02:03:55;;;;;;;;;29.40;27.20;;;;;22.48;36.64;99267.31;4920696;29;8880;-88
2023/06/20 02:06:26;;;;;;;;;21.40;19.80;;;;;22.62;36.39;99259.09;4936202;28;9001;-90
2023/06/20 02:09:00;;;;;;;;;21.80;21.40;;;;;22.58;36.38;99255.81;4980751;28;8866;-89
2023/06/20 02:11:30;;;;;;;;;21.20;21.20;;;;;22.56;36.52;99262.22;4956229;28;8879;-88
2023/06/20 02:14:01;;;;;;;;;26.20;24.40;;;;;22.65;36.32;99266.06;4925669;28;8965;-90
2023/06/20 02:16:31;;;;;;;;;21.20;21.00;;;;;22.60;36.57;99261.06;4908975;29;8938;-87
2023/06/20 02:19:01;;;;;;;;;19.80;19.80;;;;;22.64;36.40;99264.31;4920508;29;8869;-88
2023/06/20 02:21:37;;;;;;;;;25.80;21.60;;;;;22.72;36.35;99268.16;4874437;29;8877;-91
2023/06/20 02:24:09;;;;;;;;;22.75;22.50;;;;;22.72;36.28;99262.78;4867106;29;8997;-92
2023/06/20 02:26:44;;;;;;;;;19.60;19.60;;;;;22.47;36.76;99271.84;4906403;29;8845;-90
2023/06/20 02:29:15;;;;;;;;;21.20;20.00;;;;;22.60;36.60;99266.41;4952533;29;8859;-91
2023/06/20 02:31:49;;;;;;;;;16.40;15.40;;;;;22.61;36.72;99266.28;4936865;29;8908;-90
2023/06/20 02:34:24;;;;;;;;;23.00;22.80;;;;;22.39;37.12;99271.53;4938827;29;8855;-88
2023/06/20 02:36:57;;;;;;;;;21.00;20.00;;;;;22.50;36.98;99273.41;4970018;28;8964;-89
2023/06/20 02:39:29;;;;;;;;;24.60;23.20;;;;;22.48;36.82;99267.31;4925077;28;8884;-90
2023/06/20 02:41:59;;;;;;;;;20.40;20.40;;;;;22.38;36.94;99273.38;4926639;28;8842;-88
2023/06/20 02:44:28;;;;;;;;;18.60;16.60;;;;;22.30;37.07;99269.56;4931930;29;8930;-89
2023/06/20 02:47:13;;;;;;;;;21.60;21.60;;;;;22.50;37.03;99265.38;4927132;28;8843;-90
2023/06/20 02:49:57;;;;;;;;;21.00;20.60;;;;;22.56;37.14;99270.25;4958518;28;8875;-90
2023/06/20 02:52:37;;;;;;;;;19.60;19.60;;;;;22.45;36.99;99276.44;4957643;28;8879;-88
2023/06/20 02:55:13;;;;;;;;;23.60;22.80;;;;;22.33;37.22;99267.50;4943748;28;8869;-88
2023/06/20 02:57:47;;;;;;;;;17.60;15.80;;;;;22.27;36.97;99269.78;4972001;28;8877;-89
2023/06/20 03:00:18;;;;;;;;;24.00;21.40;;;;;22.28;37.35;99264.31;4938944;28;8957;-89
2023/06/20 03:02:52;;;;;;;;;25.80;23.40;;;;;22.41;36.79;99264.22;4907716;28;8998;-89
2023/06/20 03:05:23;;;;;;;;;24.60;21.60;;;;;22.52;36.55;99272.31;4952003;28;8968;-89
2023/06/20 03:07:56;;;;;;;;;23.60;22.00;;;;;22.32;36.93;99270.31;4938500;28;8849;-89
2023/06/20 03:10:28;;;;;;;;;24.00;23.20;;;;;22.22;37.51;99268.28;4941183;28;8877;-91
2023/06/20 03:12:59;;;;;;;;;25.20;23.40;;;;;22.27;37.32;99280.50;4975485;28;8875;-88
2023/06/20 03:15:28;;;;;;;;;23.20;23.00;;;;;22.56;37.02;99280.97;4982655;28;8857;-90
2023/06/20 03:18:00;;;;;;;;;25.25;25.25;;;;;22.70;38.43;99279.97;5007973;28;8840;-87
2023/06/20 03:20:30;;;;;;;;;35.75;32.75;;;;;22.78;38.26;99285.56;4987152;28;8856;-88
2023/06/20 03:23:01;;;;;;;;;59.75;49.50;;;;;22.90;38.15;99284.69;4970720;28;8856;-89
2023/06/20 03:25:35;;;;;;;;;28.50;26.50;;;;;22.86;37.06;99288.50;4986478;28;8864;-86
2023/06/20 03:28:05;;;;;;;;;30.25;29.50;;;;;22.96;37.67;99286.03;5002840;28;8844;-86
2023/06/20 03:30:37;;;;;;;;;35.50;33.25;;;;;23.06;38.78;99284.34;5018396;28;8872;-89
2023/06/20 03:33:09;;;;;;;;;36.00;32.25;;;;;23.16;38.79;99284.47;5007591;28;8833;-86
2023/06/20 03:35:40;;;;;;;;;32.25;29.25;;;;;23.24;38.72;99287.41;5047271;28;8932;-87
2023/06/20 03:38:36;;;;;;;;;29.50;29.50;;;;;23.33;38.48;99289.38;5004902;28;8902;-88
2023/06/20 03:41:18;;;;;;;;;34.25;30.50;;;;;23.43;38.05;99289.53;4890650;29;8839;-86
2023/06/20 03:43:49;;;;;;;;;35.75;32.25;;;;;23.46;38.16;99294.63;4918224;29;9005;-88
2023/06/20 03:46:20;;;;;;;;;30.75;30.25;;;;;23.51;38.28;99284.41;4892169;29;8985;-87
2023/06/20 03:48:52;;;;;;;;;26.25;26.25;;;;;23.36;38.47;99289.16;4923609;29;8847;-88
2023/06/20 03:51:21;;;;;;;;;82.00;76.75;;;;;23.35;38.41;99287.41;4905895;28;8988;-89
2023/06/20 03:53:53;;;;;;;;;38.00;33.00;;;;;23.42;38.08;99289.66;4928810;28;11681;-87
2023/06/20 03:56:24;;;;;;;;;36.00;32.25;;;;;23.49;38.45;99285.50;4940975;28;8889;-87
2023/06/20 03:58:55;;;;;;;;;37.00;32.50;;;;;23.55;38.59;99291.25;4936015;29;8851;-90
2023/06/20 04:01:25;;;;;;;;;33.75;30.25;;;;;23.64;38.72;99289.69;4907387;29;8893;-87
2023/06/20 04:03:58;;;;;;;;;32.25;31.25;;;;;23.67;38.67;99297.47;4960893;29;8963;-87
2023/06/20 04:06:31;;;;;;;;;36.00;32.75;;;;;23.77;39.07;99298.47;4938206;29;8863;-87
2023/06/20 04:09:02;;;;;;;;;37.75;33.75;;;;;23.87;39.54;99287.81;4929318;29;8859;-87
2023/06/20 04:11:32;;;;;;;;;44.00;36.75;;;;;23.94;38.91;99283.69;4934045;28;10103;-88
2023/06/20 04:14:02;;;;;;;;;36.25;32.25;;;;;23.99;38.05;99304.75;5016678;28;8968;-87
2023/06/20 04:16:32;;;;;;;;;34.50;30.25;;;;;24.08;37.64;99298.66;5018184;28;8868;-86
2023/06/20 04:19:01;;;;;;;;;34.00;30.25;;;;;24.12;37.39;99297.41;5036819;28;8853;-87
2023/06/20 04:21:31;;;;;;;;;42.25;36.00;;;;;24.01;38.50;99310.00;5043556;28;8872;-84
2023/06/20 04:24:02;;;;;;;;;35.75;32.50;;;;;23.93;38.35;99303.44;5018974;28;8856;-86
2023/06/20 04:26:36;;;;;;;;;121.75;115.25;;;;;23.91;38.27;99297.34;5057147;28;8861;-87
2023/06/20 04:29:06;;;;;;;;;39.25;34.00;;;;;24.04;38.80;99299.88;5033937;28;12441;-87
2023/06/20 04:31:38;;;;;;;;;36.75;32.75;;;;;24.18;38.41;99304.16;5027558;28;8873;-86
2023/06/20 04:34:08;;;;;;;;;34.25;30.75;;;;;24.30;38.37;99300.47;5039604;28;9024;-89
2023/06/20 04:36:38;;;;;;;;;35.25;33.25;;;;;24.44;38.14;99307.38;5016939;28;8876;-89
2023/06/20 04:39:11;;;;;;;;;33.25;30.25;;;;;24.59;37.78;99307.94;5033094;28;8871;-88
2023/06/20 04:41:41;;;;;;;;;35.25;32.25;;;;;24.70;37.15;99310.59;5017958;28;8861;-86
2023/06/20 04:44:11;;;;;;;;;30.50;30.25;;;;;24.77;36.57;99316.31;5019662;28;8878;-88
2023/06/20 04:46:41;;;;;;;;;34.75;30.25;;;;;24.92;36.78;99319.53;5035176;28;8980;-84
2023/06/20 04:49:12;;;;;;;;;29.75;28.75;;;;;25.01;36.80;99312.53;4998764;28;8867;-86
2023/06/20 04:51:41;;;;;;;;;31.50;30.00;;;;;25.11;36.72;99321.50;4997286;28;9009;-85
2023/06/20 04:54:10;;;;;;;;;31.75;30.25;;;;;25.31;36.94;99325.19;5014340;28;8869;-87
2023/06/20 04:56:41;;;;;;;;;39.25;34.50;;;;;25.49;37.04;99328.13;4998646;28;8858;-86
2023/06/20 04:59:10;;;;;;;;;36.50;32.25;;;;;25.66;36.55;99327.53;5002541;28;8866;-85
2023/06/20 05:01:40;;;;;;;;;39.00;34.25;;;;;25.74;36.91;99334.94;5002209;28;8839;-85
2023/06/20 05:04:10;;;;;;;;;31.00;30.25;;;;;25.69;34.93;99329.09;4996284;28;8842;-86
2023/06/20 05:06:42;;;;;;;;;29.25;28.00;;;;;25.77;34.92;99340.03;5011456;28;8969;-85
2023/06/20 05:09:13;;;;;;;;;28.25;28.25;;;;;25.86;34.07;99330.31;4995841;28;8854;-85
2023/06/20 05:11:44;;;;;;;;;29.25;29.00;;;;;25.79;33.42;99339.91;4964779;28;8904;-85
2023/06/20 05:14:14;;;;;;;;;25.75;25.50;;;;;25.80;33.03;99336.25;5012306;28;8950;-87
2023/06/20 05:16:43;;;;;;;;;33.75;31.25;;;;;25.78;33.32;99335.53;5028555;28;8951;-85
2023/06/20 05:19:12;;;;;;;;;25.00;23.25;;;;;25.71;33.18;99341.44;4995343;28;8886;-84
2023/06/20 05:21:42;;;;;;;;;30.25;27.00;;;;;25.76;33.26;99340.19;5012134;28;8891;-87
2023/06/20 05:24:11;;;;;;;;;28.50;26.75;;;;;25.54;33.51;99330.44;4956415;28;8868;-85
2023/06/20 05:26:40;;;;;;;;;26.75;26.75;;;;;25.30;33.76;99345.88;4984436;28;9645;-86
2023/06/20 05:29:11;;;;;;;;;37.00;33.00;;;;;25.44;34.43;99344.69;4951015;28;8854;-87
2023/06/20 05:31:41;;;;;;;;;29.00;27.25;;;;;25.40;33.83;99347.81;4916267;28;8904;-86
2023/06/20 05:34:10;;;;;;;;;34.00;32.00;;;;;25.34;34.09;99354.56;4935206;28;8880;-86
2023/06/20 05:36:39;;;;;;;;;27.25;26.00;;;;;25.51;33.56;99361.16;4918754;29;9623;-87
2023/06/20 05:39:10;;;;;;;;;25.25;25.00;;;;;24.97;34.37;99368.41;4934217;28;8843;-86
2023/06/20 05:41:39;;;;;;;;;26.40;26.40;;;;;24.92;34.28;99370.63;4916145;29;8979;-85
2023/06/20 05:44:08;;;;;;;;;29.75;27.75;;;;;25.07;34.69;99373.88;4953933;29;8844;-85
2023/06/20 05:46:38;;;;;;;;;29.25;28.50;;;;;25.35;34.47;99374.25;4928880;28;8874;-86
2023/06/20 05:49:10;;;;;;;;;28.50;25.50;;;;;25.17;35.14;99373.94;4960652;28;8894;-85
2023/06/20 05:51:40;;;;;;;;;27.00;27.00;;;;;24.94;36.33;99376.72;4955496;28;8950;-85
2023/06/20 05:54:10;;;;;;;;;26.25;25.50;;;;;24.63;37.05;99379.25;4977364;28;8863;-84
2023/06/20 05:56:39;;;;;;;;;28.00;27.50;;;;;24.81;36.42;99390.38;4984632;28;8896;-85
2023/06/20 05:59:17;;;;;;;;;29.75;27.00;;;;;25.16;36.93;99386.53;4995972;28;8847;-86
2023/06/20 06:01:50;;;;;;;;;25.75;24.25;;;;;24.91;36.98;99385.91;5010343;28;8885;-83
2023/06/20 06:04:22;;;;;;;;;28.00;27.25;;;;;25.47;36.14;99389.31;4995010;28;8882;-86
2023/06/20 06:06:53;;;;;;;;;26.50;26.50;;;;;25.03;35.54;99392.09;5029234;28;8886;-88
2023/06/20 06:09:22;;;;;;;;;27.25;26.00;;;;;25.51;35.65;99398.81;5001309;28;8854;-84
2023/06/20 06:11:51;;;;;;;;;26.25;25.25;;;;;25.70;35.02;99400.81;5013231;28;8865;-85
2023/06/20 06:14:21;;;;;;;;;27.25;26.75;;;;;25.55;35.54;99396.72;5035370;28;8844;-85
2023/06/20 06:16:52;;;;;;;;;29.50;28.00;;;;;25.93;35.67;99393.44;5029887;28;8887;-88
2023/06/20 06:19:22;;;;;;;;;26.50;24.75;;;;;26.14;35.00;99404.16;5029607;28;8871;-89
2023/06/20 06:21:51;;;;;;;;;27.75;26.00;;;;;26.45;34.79;99414.88;5012554;28;9109;-86
2023/06/20 06:24:21;;;;;;;;;30.25;28.50;;;;;26.70;33.85;99407.28;5029506;28;8883;-86
2023/06/20 06:26:50;;;;;;;;;27.50;26.75;;;;;26.81;34.07;99416.09;5030269;28;8856;-86
2023/06/20 06:29:20;;;;;;;;;21.75;21.75;;;;;26.82;33.92;99416.97;5028668;28;9566;-85
2023/06/20 06:31:50;;;;;;;;;25.50;24.00;;;;;26.45;34.13;99418.41;4997728;28;8967;-87
2023/06/20 06:34:20;;;;;;;;;29.50;27.00;;;;;26.11;35.10;99417.88;5017846;28;8895;-87
2023/06/20 06:36:50;;;;;;;;;29.00;26.50;;;;;26.03;35.12;99415.03;5011115;28;8913;-86
2023/06/20 06:39:20;;;;;;;;;26.25;25.50;;;;;25.19;35.82;99421.25;5009347;28;8906;-85
2023/06/20 06:41:50;;;;;;;;;31.75;28.75;;;;;24.69;37.23;99413.69;5008392;28;8863;-87
2023/06/20 06:44:19;;;;;;;;;28.75;28.75;;;;;24.66;37.91;99418.47;4965676;28;8941;-87
2023/06/20 06:46:51;;;;;;;;;43.00;36.75;;;;;24.51;38.66;99423.28;5001463;28;8871;-84
2023/06/20 06:49:21;;;;;;;;;35.50;31.25;;;;;24.90;38.37;99421.84;4937684;28;8917;-86
2023/06/20 06:51:50;;;;;;;;;34.75;31.50;;;;;25.28;37.35;99415.09;4969191;28;8859;-86
2023/06/20 06:54:20;;;;;;;;;28.25;28.25;;;;;25.72;36.67;99415.00;4952632;28;8906;-85
2023/06/20 06:56:49;;;;;;;;;34.50;32.00;;;;;25.82;36.08;99407.81;4936225;28;9140;-89
2023/06/20 06:59:18;;;;;;;;;30.00;29.25;;;;;26.00;35.82;99408.06;4952428;28;8946;-85
2023/06/20 07:01:47;;;;;;;;;29.00;27.75;;;;;26.43;34.69;99412.31;4952370;28;8874;-85
2023/06/20 07:04:18;;;;;;;;;31.00;29.50;;;;;26.81;34.19;99412.56;4952376;28;8875;-85
2023/06/20 07:06:48;;;;;;;;;28.75;27.25;;;;;26.44;34.66;99411.34;4983125;28;8872;-87
2023/06/20 07:09:17;;;;;;;;;27.50;26.75;;;;;26.46;34.66;99416.59;5031911;28;9007;-85
2023/06/20 07:11:46;;;;;;;;;29.00;29.00;;;;;25.90;35.29;99412.53;5031766;28;10010;-89
2023/06/20 07:14:16;;;;;;;;;31.75;31.00;;;;;26.36;35.37;99410.31;5030951;28;9025;-86
2023/06/20 07:16:47;;;;;;;;;27.25;26.75;;;;;26.82;34.93;99400.78;5006959;28;8886;-85
2023/06/20 07:19:34;;;;;;;;;27.50;26.75;;;;;27.37;33.82;99405.63;4974839;28;8894;-86
2023/06/20 07:22:03;;;;;;;;;29.50;28.25;;;;;27.80;33.24;99407.00;4991035;28;8848;-85
2023/06/20 07:24:33;;;;;;;;;30.00;24.00;;;;;27.91;33.18;99405.94;4990975;28;8845;-87
2023/06/20 07:27:01;;;;;;;;;27.25;27.25;;;;;28.19;32.82;99412.25;4974758;28;8962;-83
2023/06/20 07:29:31;;;;;;;;;27.25;27.25;;;;;28.29;31.77;99402.28;4990981;28;8864;-89
2023/06/20 07:32:00;;;;;;;;;32.00;30.50;;;;;28.27;31.47;99401.56;4973194;28;8918;-89
2023/06/20 07:34:30;;;;;;;;;26.00;25.50;;;;;28.32;31.97;99401.94;4991960;28;8849;-85
2023/06/20 07:37:00;;;;;;;;;27.50;27.00;;;;;28.37;32.22;99410.47;4993090;28;8900;-85
2023/06/20 07:39:29;;;;;;;;;26.75;26.00;;;;;28.66;32.06;99406.75;5000485;28;8871;-86
2023/06/20 07:41:58;;;;;;;;;30.25;29.00;;;;;28.72;32.09;99414.25;5013890;28;8991;-87
2023/06/20 07:44:28;;;;;;;;;28.00;27.50;;;;;28.91;31.64;99412.41;5009404;28;8852;-87
2023/06/20 07:46:57;;;;;;;;;26.75;26.50;;;;;28.37;32.39;99409.63;4991894;28;8907;-85
2023/06/20 07:49:26;;;;;;;;;27.00;27.00;;;;;28.28;32.74;99408.66;5007203;28;8845;-84
2023/06/20 07:51:55;;;;;;;;;29.75;29.00;;;;;27.97;33.42;99418.88;5007102;28;8884;-86
2023/06/20 07:54:27;;;;;;;;;29.50;28.25;;;;;28.49;33.13;99412.97;5028027;28;8898;-85
2023/06/20 07:56:57;;;;;;;;;28.00;27.25;;;;;28.81;33.09;99419.78;5020442;28;8957;-85
2023/06/20 07:59:27;;;;;;;;;30.25;26.50;;;;;28.89;32.88;99417.13;5032594;28;8963;-84
2023/06/20 08:01:55;;;;;;;;;29.25;28.25;;;;;27.70;34.26;99419.66;5037244;28;8868;-83
2023/06/20 08:04:28;;;;;;;;;28.00;26.00;;;;;27.99;33.97;99409.63;5020194;28;8884;-86
2023/06/20 08:07:19;;;;;;;;;24.25;24.25;;;;;28.18;34.09;99416.81;5014860;28;8876;-89
2023/06/20 08:09:50;;;;;;;;;27.00;27.00;;;;;28.25;32.93;99421.63;4967676;28;8910;-86
2023/06/20 08:12:19;;;;;;;;;30.00;28.50;;;;;28.44;32.04;99426.09;4969848;28;8865;-87
2023/06/20 08:14:51;;;;;;;;;26.25;24.50;;;;;28.82;32.33;99427.75;4958071;28;8877;-85
2023/06/20 08:17:21;;;;;;;;;28.75;28.00;;;;;29.01;30.71;99429.44;4958487;28;8946;-89
2023/06/20 08:19:50;;;;;;;;;28.00;27.50;;;;;28.59;32.06;99425.44;4929545;28;9015;-84
2023/06/20 08:22:19;;;;;;;;;27.75;25.75;;;;;28.98;31.35;99432.44;4973123;28;8880;-88
2023/06/20 08:24:50;;;;;;;;;28.50;27.50;;;;;28.82;32.43;99424.16;4953992;28;9003;-86
2023/06/20 08:27:20;;;;;;;;;27.00;27.00;;;;;28.92;31.87;99424.97;4969991;28;8872;-83
2023/06/20 08:29:49;;;;;;;;;28.25;27.50;;;;;29.13;31.85;99419.22;4987196;28;9046;-87
2023/06/20 08:32:18;;;;;;;;;35.75;31.50;;;;;29.05;31.57;99416.47;4972282;28;8888;-85
2023/06/20 08:34:49;;;;;;;;;27.75;26.50;;;;;29.31;31.50;99422.81;4987569;28;8880;-84
2023/06/20 08:37:21;;;;;;;;;28.25;26.75;;;;;29.10;30.82;99425.81;4972009;28;8868;-86
2023/06/20 08:39:52;;;;;;;;;30.50;27.75;;;;;29.42;31.31;99424.41;4956079;28;8887;-84
2023/06/20 08:42:21;;;;;;;;;30.00;29.00;;;;;29.61;29.71;99434.19;5012065;28;8860;-84
2023/06/20 08:44:51;;;;;;;;;32.50;30.50;;;;;29.19;30.70;99437.59;5028090;28;8970;-85
2023/06/20 08:47:26;;;;;;;;;32.25;31.00;;;;;29.26;31.26;99438.66;5046519;28;8892;-86
2023/06/20 08:49:56;;;;;;;;;27.75;27.25;;;;;29.18;31.51;99439.44;5031632;28;8856;-84
2023/06/20 08:52:28;;;;;;;;;25.25;23.75;;;;;29.53;31.71;99431.44;5031351;28;8872;-85
2023/06/20 08:55:02;;;;;;;;;31.00;29.25;;;;;28.46;32.36;99438.47;5013283;28;8922;-86
2023/06/20 08:57:39;;;;;;;;;32.75;30.50;;;;;28.81;31.88;99436.84;5025283;28;8849;-86
2023/06/20 09:00:11;;;;;;;;;31.25;29.25;;;;;28.83;32.54;99437.53;5002020;28;8892;-85
2023/06/20 09:02:40;;;;;;;;;31.75;29.00;;;;;29.18;32.27;99433.19;5025693;28;8854;-84
2023/06/20 09:05:10;;;;;;;;;33.50;31.50;;;;;28.85;33.13;99438.22;5051080;28;8857;-84
2023/06/20 09:07:41;;;;;;;;;28.50;28.50;;;;;29.25;32.86;99434.25;5019402;28;8897;-83
2023/06/20 09:10:13;;;;;;;;;35.25;32.25;;;;;29.51;33.13;99428.88;5016107;28;8878;-84
2023/06/20 09:12:48;;;;;;;;;32.75;31.00;;;;;29.75;33.67;99435.50;5010753;28;8850;-87
2023/06/20 09:15:19;;;;;;;;;32.75;30.50;;;;;29.84;32.31;99441.81;5042553;28;8868;-83
2023/06/20 09:17:52;;;;;;;;;29.25;28.75;;;;;29.88;32.55;99440.50;5025811;28;8903;-86
2023/06/20 09:20:25;;;;;;;;;33.00;31.00;;;;;30.07;31.49;99442.16;5025122;28;8859;-86
2023/06/20 09:22:54;;;;;;;;;31.50;30.00;;;;;30.19;31.49;99440.03;5010161;28;8847;-87
2023/06/20 09:25:26;;;;;;;;;31.50;30.25;;;;;29.74;31.85;99434.63;5011916;28;8842;-85
2023/06/20 09:27:56;;;;;;;;;34.00;31.25;;;;;28.83;33.19;99434.00;5019791;28;8968;-85
2023/06/20 09:30:30;;;;;;;;;38.50;33.50;;;;;29.28;32.37;99435.81;5019784;28;8924;-87
2023/06/20 09:33:04;;;;;;;;;32.50;30.50;;;;;29.70;31.88;99435.97;5011513;28;8850;-85
2023/06/20 09:35:33;;;;;;;;;34.25;30.50;;;;;29.29;32.88;99432.06;5009320;28;8847;-85
2023/06/20 09:38:05;;;;;;;;;37.75;32.25;;;;;29.46;31.97;99433.06;5014349;28;8878;-85
2023/06/20 09:40:44;;;;;;;;;40.50;33.75;;;;;29.88;31.27;99427.81;5002946;28;8867;-84
2023/06/20 09:43:14;;;;;;;;;31.00;30.25;;;;;30.09;30.83;99435.53;5018995;28;8906;-85
2023/06/20 09:45:43;;;;;;;;;29.75;29.00;;;;;30.30;30.67;99432.44;5016630;28;8853;-85
2023/06/20 09:48:15;;;;;;;;;33.50;30.50;;;;;29.36;30.76;99435.88;5043516;28;8871;-85
2023/06/20 09:50:47;;;;;;;;;29.50;28.75;;;;;29.44;30.75;99435.06;4995942;28;8849;-85
2023/06/20 09:53:23;;;;;;;;;30.75;29.00;;;;;29.65;30.55;99440.13;5029134;28;8848;-85
2023/06/20 09:55:56;;;;;;;;;29.50;29.00;;;;;29.85;30.91;99432.69;5030565;28;8879;-87
2023/06/20 09:58:26;;;;;;;;;33.75;31.00;;;;;29.29;31.62;99443.78;5012244;28;8974;-86
2023/06/20 10:00:57;;;;;;;;;33.75;29.75;;;;;29.77;31.67;99441.63;5028620;28;8880;-87
2023/06/20 10:03:27;;;;;;;;;35.25;32.00;;;;;28.67;32.99;99440.94;5028540;28;8860;-87
2023/06/20 10:05:58;;;;;;;;;28.00;27.50;;;;;28.03;32.91;99442.59;5029972;28;8852;-85
2023/06/20 10:08:28;;;;;;;;;32.75;29.50;;;;;27.56;33.57;99439.84;5044606;28;8875;-86
2023/06/20 10:10:59;;;;;;;;;32.25;30.00;;;;;27.66;32.13;99439.88;5027895;28;8852;-84
2023/06/20 10:13:29;;;;;;;;;30.50;29.00;;;;;27.52;31.94;99446.53;5029411;28;8867;-86
2023/06/20 10:16:00;;;;;;;;;28.75;25.75;;;;;27.53;30.73;99442.81;5011461;28;8832;-86
2023/06/20 10:18:38;;;;;;;;;26.00;26.00;;;;;27.66;31.27;99443.41;5030156;28;8848;-86
2023/06/20 10:21:08;;;;;;;;;32.50;28.50;;;;;27.63;32.11;99449.97;5033921;28;8864;-84
2023/06/20 10:23:38;;;;;;;;;30.50;27.75;;;;;28.08;31.88;99436.75;5040951;28;8872;-85
2023/06/20 10:26:11;;;;;;;;;26.50;26.25;;;;;28.56;30.89;99435.69;5007542;28;8894;-86
2023/06/20 10:28:41;;;;;;;;;33.00;30.75;;;;;28.48;29.97;99431.06;5034775;28;8857;-83
2023/06/20 10:31:10;;;;;;;;;35.00;32.50;;;;;28.49;31.19;99423.78;5021745;28;8943;-84
2023/06/20 10:33:40;;;;;;;;;31.75;29.25;;;;;27.88;31.13;99427.88;4972366;28;8854;-86
2023/06/20 10:36:11;;;;;;;;;33.25;30.50;;;;;27.92;31.98;99430.13;4994348;28;9111;-85
2023/06/20 10:39:10;;;;;;;;;32.00;30.25;;;;;28.45;30.72;99427.78;5009808;28;8997;-84
2023/06/20 10:41:42;;;;;;;;;32.75;31.25;;;;;28.76;31.27;99417.50;4993163;28;8872;-84
2023/06/20 10:44:12;;;;;;;;;30.75;29.75;;;;;29.34;30.15;99421.63;4993575;28;8976;-86
2023/06/20 10:46:47;;;;;;;;;28.00;28.00;;;;;29.03;28.62;99427.44;5011334;28;8948;-85
2023/06/20 10:49:16;;;;;;;;;24.50;24.50;;;;;29.44;28.60;99432.38;4995371;28;8874;-87
2023/06/20 10:51:45;;;;;;;;;28.00;26.25;;;;;29.55;29.07;99422.13;5012204;28;8899;-85
2023/06/20 10:54:15;;;;;;;;;36.50;30.75;;;;;29.57;29.52;99427.38;5009491;28;8878;-83
2023/06/20 10:56:47;;;;;;;;;34.50;31.25;;;;;29.69;28.46;99420.75;5008645;28;8882;-84
2023/06/20 10:59:17;;;;;;;;;37.50;32.75;;;;;28.63;31.17;99425.97;4975484;28;8835;-83
2023/06/20 11:01:47;;;;;;;;;32.00;30.25;;;;;28.72;31.49;99408.00;5009095;28;8901;-85
2023/06/20 11:04:18;;;;;;;;;35.50;32.00;;;;;28.09;33.40;99416.84;5008946;28;8839;-83
2023/06/20 11:06:48;;;;;;;;;37.75;33.25;;;;;28.82;32.48;99410.63;5008527;28;8877;-82
2023/06/20 11:09:17;;;;;;;;;40.75;34.50;;;;;28.69;32.32;99411.03;5006341;28;9025;-84
2023/06/20 11:11:47;;;;;;;;;33.50;31.00;;;;;29.28;31.56;99406.03;5031224;28;8844;-83
2023/06/20 11:14:19;;;;;;;;;35.25;31.25;;;;;29.79;30.67;99411.66;5047254;28;8867;-85
2023/06/20 11:16:50;;;;;;;;;32.25;31.00;;;;;30.20;29.69;99401.03;5022561;28;8860;-83
2023/06/20 11:19:21;;;;;;;;;35.00;29.75;;;;;30.77;28.72;99408.53;5031668;28;8860;-82
2023/06/20 11:21:53;;;;;;;;;28.00;27.75;;;;;30.23;28.41;99406.16;5030960;28;8899;-81
2023/06/20 11:24:22;;;;;;;;;31.25;29.50;;;;;29.91;29.08;99400.38;5012918;28;8946;-81
2023/06/20 11:26:53;;;;;;;;;29.00;28.00;;;;;30.57;28.30;99400.66;5008444;28;8877;-83
2023/06/20 11:29:23;;;;;;;;;31.00;30.00;;;;;31.14;28.28;99402.63;5012410;28;8872;-81
2023/06/20 11:32:10;;;;;;;;;29.00;27.75;;;;;31.57;26.39;99400.59;5018824;28;8854;-81
2023/06/20 11:34:56;;;;;;;;;26.50;25.50;;;;;31.54;26.92;99400.09;5025379;28;8859;-81
2023/06/20 11:37:25;;;;;;;;;29.25;28.75;;;;;29.97;28.02;99398.88;5011530;28;8878;-83
2023/06/20 11:39:54;;;;;;;;;29.00;28.75;;;;;30.98;27.59;99392.63;5012047;28;8842;-80
2023/06/20 11:42:25;;;;;;;;;24.75;24.75;;;;;31.62;26.28;99403.66;5011155;28;9023;-81
2023/06/20 11:44:53;;;;;;;;;31.75;30.00;;;;;30.80;27.77;99400.91;5010430;28;8842;-83
2023/06/20 11:47:23;;;;;;;;;32.50;30.75;;;;;30.44;28.28;99403.84;4993359;28;8866;-82